Ferron, Utah
Current Conditions -  °F | °C
As of 11:53 PM on Saturday 22 Nov 2014 (Local Time) from KPUC Reporting Station
Few Clouds Few Clouds  
Wind Chill: 21°   Ceiling: Unl
Heat Index: 31°   Visibility: 10mi
Dew Point: 23°   Wind: 13mph
Humidity: 72%   Direction: 300°WNW
Pressure: 29.85"   Gusts: NA
Location:  39.09°N, 111.13°W
Report Text: KPUC 230653Z AUTO 30011KT 10SM FEW110 M01/M05 A2985 RMK AO2 SLP129 T10061050 400441044
Loading
Personal Weather Stations






























Interactive Weather Map New forecast layout! Learn more

10-Day Weather Forecast

Advertisements
Track Severe Weather on mobile